Time;durP1;ratioP1;P1;durP2;ratioP2;P2;SDS_P1;SDS_P2;PMS_P1;PMS_P2;Temp;Humidity;BMP_temperature;BMP_pressure;BME280_temperature;BME280_humidity;BME280_pressure;Samples;Min_cycle;Max_cycle;Signal;HPM_P1;HPM_P2
2022/06/04 00:00:31;;;;;;;;;;;;;;;24.48;100.00;97939.88;5080121;28;20369;-59
2022/06/04 00:02:57;;;;;;;;;;;;;;;24.54;100.00;97941.19;5071584;28;19925;-59
2022/06/04 00:05:25;;;;;;;;;;;;;;;24.54;100.00;97947.41;5071951;28;19932;-60
2022/06/04 00:07:51;;;;;;;;;;;;;;;24.49;100.00;97944.97;5071792;28;19924;-59
2022/06/04 00:15:50;;;;;;;;;;;;;;;24.40;100.00;97936.16;5080864;28;19924;-59
2022/06/04 00:18:17;;;;;;;;;;;;;;;24.35;100.00;97939.16;5079718;28;19931;-59
2022/06/04 00:20:44;;;;;;;;;;;;;;;24.27;100.00;97939.31;5081417;28;19925;-59
2022/06/04 00:23:11;;;;;;;;;;;;;;;24.28;100.00;97938.97;5083217;28;19925;-59
2022/06/04 00:25:39;;;;;;;;;;;;;;;24.32;100.00;97948.06;5082328;28;20003;-59
2022/06/04 00:28:08;;;;;;;;;;;;;;;24.18;100.00;97947.66;5079533;28;19988;-59
2022/06/04 00:30:35;;;;;;;;;;;;;;;24.37;100.00;97939.59;5079527;28;19928;-60
2022/06/04 00:33:01;;;;;;;;;;;;;;;24.33;100.00;97940.63;5082950;28;19959;-60
2022/06/04 00:35:28;;;;;;;;;;;;;;;24.25;100.00;97939.69;5083007;28;19986;-60
2022/06/04 00:37:54;;;;;;;;;;;;;;;24.15;100.00;97935.53;5079822;28;19931;-59
2022/06/04 00:40:26;;;;;;;;;;;;;;;24.27;100.00;97922.94;5079482;28;19928;-59
2022/06/04 00:42:55;;;;;;;;;;;;;;;24.28;100.00;97922.59;5079283;28;19935;-59
2022/06/04 00:45:51;;;;;;;;;;;;;;;24.33;100.00;97924.25;5077922;28;19959;-60
2022/06/04 00:48:20;;;;;;;;;;;;;;;24.39;100.00;97920.91;5017369;28;20403;-59
2022/06/04 00:50:46;;;;;;;;;;;;;;;23.92;100.00;97929.03;5067324;28;19928;-59
2022/06/04 00:53:13;;;;;;;;;;;;;;;23.79;100.00;97932.97;5083021;28;19924;-60
2022/06/04 00:55:45;;;;;;;;;;;;;;;23.63;100.00;97924.75;5081858;28;19924;-58
2022/06/04 00:58:23;;;;;;;;;;;;;;;23.72;100.00;97926.53;5079125;28;20305;-59
2022/06/04 01:00:52;;;;;;;;;;;;;;;23.92;100.00;97917.34;5081635;28;19955;-58
2022/06/04 01:03:39;;;;;;;;;;;;;;;24.04;100.00;97909.88;5064937;28;20010;-59
2022/06/04 01:06:16;;;;;;;;;;;;;;;24.17;100.00;97918.78;5079160;28;19925;-59
2022/06/04 01:08:57;;;;;;;;;;;;;;;24.22;100.00;97917.75;5080671;28;19972;-59
2022/06/04 01:11:31;;;;;;;;;;;;;;;24.26;100.00;97922.16;5082573;28;19931;-59
2022/06/04 01:14:05;;;;;;;;;;;;;;;24.29;100.00;97918.72;5091733;28;19960;-59
2022/06/04 01:16:37;;;;;;;;;;;;;;;24.27;100.00;97922.94;5079034;28;19921;-58
2022/06/04 01:19:12;;;;;;;;;;;;;;;24.14;100.00;97933.94;5070378;28;19960;-58
2022/06/04 01:21:47;;;;;;;;;;;;;;;24.22;100.00;97929.47;5070598;28;19929;-59
2022/06/04 01:24:22;;;;;;;;;;;;;;;24.18;100.00;97928.56;5070461;28;20695;-59
2022/06/04 01:27:12;;;;;;;;;;;;;;;24.00;100.00;97938.19;5070349;28;19963;-59
2022/06/04 01:29:43;;;;;;;;;;;;;;;24.12;100.00;97946.34;5070413;28;19925;-59
2022/06/04 01:32:11;;;;;;;;;;;;;;;24.13;100.00;97950.66;5070315;28;19929;-59
2022/06/04 01:34:40;;;;;;;;;;;;;;;24.09;100.00;97952.47;5070343;28;19956;-59
2022/06/04 01:37:09;;;;;;;;;;;;;;;24.00;100.00;97960.03;5070070;28;19932;-60
2022/06/04 01:42:19;;;;;;;;;;;;;;;23.96;100.00;97959.94;5069257;28;19924;-59
2022/06/04 01:44:49;;;;;;;;;;;;;;;23.92;100.00;97959.03;5072091;28;19925;-59
2022/06/04 01:47:16;;;;;;;;;;;;;;;23.90;100.00;97957.78;5081850;28;19950;-59
2022/06/04 01:49:45;;;;;;;;;;;;;;;23.85;100.00;97958.84;5080150;28;19972;-60
2022/06/04 01:52:15;;;;;;;;;;;;;;;23.87;100.00;97961.22;5078442;28;19932;-60
2022/06/04 01:54:48;;;;;;;;;;;;;;;23.94;100.00;97956.75;5079749;28;19936;-60
2022/06/04 01:57:18;;;;;;;;;;;;;;;23.96;100.00;97948.22;5081676;28;19920;-60
2022/06/04 01:59:48;;;;;;;;;;;;;;;24.01;100.00;97947.97;5080063;28;19924;-59
2022/06/04 02:02:18;;;;;;;;;;;;;;;24.05;100.00;97943.38;5078224;28;19928;-60
2022/06/04 02:04:48;;;;;;;;;;;;;;;24.00;100.00;97935.47;5079973;28;19988;-60
2022/06/04 02:10:08;;;;;;;;;;;;;;;23.65;100.00;97938.03;5064402;28;19925;-60
2022/06/04 02:12:35;;;;;;;;;;;;;;;23.73;100.00;97955.38;5065321;28;19920;-58
2022/06/04 02:15:05;;;;;;;;;;;;;;;23.73;100.00;97941.75;5081761;28;19946;-59
2022/06/04 02:17:33;;;;;;;;;;;;;;;23.61;100.00;97946.09;5064086;28;19931;-59
2022/06/04 02:20:01;;;;;;;;;;;;;;;23.74;100.00;97940.63;5069943;28;19925;-60
2022/06/04 02:22:28;;;;;;;;;;;;;;;23.75;100.00;97934.00;5069937;28;19924;-60
2022/06/04 02:24:55;;;;;;;;;;;;;;;23.57;100.00;97928.88;5069780;28;19924;-59
2022/06/04 02:27:21;;;;;;;;;;;;;;;23.64;100.00;97928.28;5069670;28;19932;-60
2022/06/04 02:29:47;;;;;;;;;;;;;;;23.71;100.00;97924.94;5069867;28;19989;-60
2022/06/04 02:32:17;;;;;;;;;;;;;;;23.66;100.00;97917.81;5069769;28;20000;-59
2022/06/04 02:34:51;;;;;;;;;;;;;;;23.56;100.00;97918.28;5069670;28;19925;-59
2022/06/04 02:37:21;;;;;;;;;;;;;;;23.36;100.00;97909.16;5069687;28;19924;-60
2022/06/04 02:39:54;;;;;;;;;;;;;;;23.40;100.00;97915.50;5069815;28;19925;-60
2022/06/04 02:42:25;;;;;;;;;;;;;;;23.52;100.00;97906.53;5069701;28;19924;-60
2022/06/04 02:44:55;;;;;;;;;;;;;;;23.58;100.00;97910.59;5072459;28;19947;-60
2022/06/04 02:47:24;;;;;;;;;;;;;;;23.52;100.00;97912.75;5081435;28;20624;-60
2022/06/04 02:49:54;;;;;;;;;;;;;;;23.54;100.00;97912.41;5078582;28;20273;-60
2022/06/04 02:52:21;;;;;;;;;;;;;;;23.46;100.00;97908.69;5078936;28;20458;-60
2022/06/04 02:54:50;;;;;;;;;;;;;;;23.48;100.00;97921.97;5065905;28;19925;-60
2022/06/04 02:57:17;;;;;;;;;;;;;;;23.44;100.00;97916.41;5084963;28;19939;-59
2022/06/04 02:59:46;;;;;;;;;;;;;;;23.48;100.00;97922.78;5083429;28;19951;-60
2022/06/04 03:02:14;;;;;;;;;;;;;;;23.48;100.00;97922.78;5081305;28;19956;-60
2022/06/04 03:04:41;;;;;;;;;;;;;;;23.46;100.00;97927.75;5082678;28;20020;-60
2022/06/04 03:07:12;;;;;;;;;;;;;;;23.40;100.00;97931.06;5085066;28;19933;-60
2022/06/04 03:09:39;;;;;;;;;;;;;;;23.46;100.00;97935.13;5084092;28;19931;-59
2022/06/04 03:12:06;;;;;;;;;;;;;;;23.46;100.00;97919.59;5086649;28;19925;-60
2022/06/04 03:14:32;;;;;;;;;;;;;;;23.47;100.00;97918.44;5088248;28;19948;-58
2022/06/04 03:16:58;;;;;;;;;;;;;;;23.53;100.00;97914.34;5072580;28;20026;-60
2022/06/04 03:19:25;;;;;;;;;;;;;;;23.54;100.00;97915.13;5072678;28;19924;-60
2022/06/04 03:21:51;;;;;;;;;;;;;;;23.49;100.00;97916.16;5072678;28;19935;-60
2022/06/04 03:24:19;;;;;;;;;;;;;;;23.34;100.00;97924.25;5072616;28;19925;-60
2022/06/04 03:26:45;;;;;;;;;;;;;;;23.45;100.00;97918.00;5072599;28;19935;-59
2022/06/04 03:29:12;;;;;;;;;;;;;;;23.44;100.00;97913.69;5072508;28;19968;-58
2022/06/04 03:31:38;;;;;;;;;;;;;;;23.38;100.00;97920.50;5072206;28;19925;-59
2022/06/04 03:34:05;;;;;;;;;;;;;;;23.31;100.00;97916.75;5072446;28;19967;-59
2022/06/04 03:36:31;;;;;;;;;;;;;;;23.38;100.00;97919.69;5072335;28;19925;-60
2022/06/04 03:38:58;;;;;;;;;;;;;;;23.43;100.00;97922.19;5080485;28;19925;-60
2022/06/04 03:41:26;;;;;;;;;;;;;;;23.46;100.00;97925.03;5080721;28;19928;-59
2022/06/04 03:43:53;;;;;;;;;;;;;;;23.28;100.00;97925.63;5073693;28;19936;-59
2022/06/04 03:46:20;;;;;;;;;;;;;;;23.35;100.00;97932.09;5080047;28;20059;-59
2022/06/04 03:48:46;;;;;;;;;;;;;;;23.39;100.00;97929.47;5081639;28;20019;-59
2022/06/04 03:51:13;;;;;;;;;;;;;;;23.47;100.00;97937.53;5083520;28;19947;-59
2022/06/04 03:53:39;;;;;;;;;;;;;;;23.46;100.00;97935.94;5082525;28;19931;-59
2022/06/04 03:56:06;;;;;;;;;;;;;;;23.24;100.00;97935.66;5080209;28;19932;-60
2022/06/04 03:58:33;;;;;;;;;;;;;;;22.78;100.00;97932.31;5080300;28;19929;-60
2022/06/04 04:01:00;;;;;;;;;;;;;;;22.83;100.00;97932.09;5071872;28;19952;-60
2022/06/04 04:03:26;;;;;;;;;;;;;;;22.98;100.00;97936.84;5071121;28;19932;-60
2022/06/04 04:05:54;;;;;;;;;;;;;;;23.09;100.00;97937.13;5071359;28;19940;-60
2022/06/04 04:08:22;;;;;;;;;;;;;;;23.10;100.00;97944.19;5071527;28;19924;-60
2022/06/04 04:10:49;;;;;;;;;;;;;;;23.22;100.00;97946.09;5071509;28;19924;-58
2022/06/04 04:13:16;;;;;;;;;;;;;;;23.14;100.00;97945.09;5090089;28;19968;-60
2022/06/04 04:15:45;;;;;;;;;;;;;;;22.97;100.00;97937.16;5081631;28;19924;-59
2022/06/04 04:18:12;;;;;;;;;;;;;;;22.96;100.00;97949.22;5079580;28;20000;-60
2022/06/04 04:20:39;;;;;;;;;;;;;;;23.11;100.00;97943.84;5080076;28;19956;-59
2022/06/04 04:23:06;;;;;;;;;;;;;;;22.71;100.00;97950.38;5082886;28;19924;-60
2022/06/04 04:25:34;;;;;;;;;;;;;;;22.22;100.00;97939.38;5065387;28;19924;-60
2022/06/04 04:28:01;;;;;;;;;;;;;;;21.22;100.00;97947.84;5079363;28;20487;-60
2022/06/04 04:30:30;;;;;;;;;;;;;;;21.08;100.00;97947.25;5079453;28;19936;-60
2022/06/04 04:32:58;;;;;;;;;;;;;;;21.64;100.00;97950.53;5082573;28;19924;-60
2022/06/04 04:35:26;;;;;;;;;;;;;;;22.09;100.00;97959.56;5082788;28;19924;-60
2022/06/04 04:37:52;;;;;;;;;;;;;;;22.42;100.00;97945.88;5080022;28;19925;-60
2022/06/04 04:40:20;;;;;;;;;;;;;;;22.60;100.00;97947.25;5079113;28;19929;-59
2022/06/04 04:42:48;;;;;;;;;;;;;;;22.60;100.00;97953.50;5078985;28;19925;-59
2022/06/04 04:45:15;;;;;;;;;;;;;;;22.69;100.00;97958.06;5076601;28;19921;-59
2022/06/04 04:47:43;;;;;;;;;;;;;;;22.52;100.00;97954.41;5081211;28;19959;-59
2022/06/04 04:50:13;;;;;;;;;;;;;;;21.80;100.00;97948.78;5078684;28;20008;-59
2022/06/04 04:52:40;;;;;;;;;;;;;;;21.50;100.00;97945.38;5079791;28;19932;-60
2022/06/04 04:55:07;;;;;;;;;;;;;;;21.09;100.00;97948.09;5082086;28;20030;-59
2022/06/04 04:57:33;;;;;;;;;;;;;;;21.02;100.00;97943.94;5082075;28;19950;-59
2022/06/04 04:59:59;;;;;;;;;;;;;;;21.04;100.00;97945.56;5078410;28;20599;-58
2022/06/04 05:02:26;;;;;;;;;;;;;;;21.23;100.00;97945.94;5078518;28;19932;-58
2022/06/04 05:04:52;;;;;;;;;;;;;;;21.00;100.00;97948.94;5081379;28;19975;-58
2022/06/04 05:07:20;;;;;;;;;;;;;;;20.31;100.00;97951.19;5081987;28;19924;-58
2022/06/04 05:09:46;;;;;;;;;;;;;;;20.00;100.00;97953.31;5062193;28;19924;-59
2022/06/04 05:12:12;;;;;;;;;;;;;;;20.10;100.00;97942.16;5085683;28;19935;-58
2022/06/04 05:14:39;;;;;;;;;;;;;;;20.70;100.00;97952.78;5084074;28;19988;-59
2022/06/04 05:17:06;;;;;;;;;;;;;;;21.42;100.00;97952.47;5081390;28;19935;-59
2022/06/04 05:19:32;;;;;;;;;;;;;;;21.77;100.00;97952.16;5081774;28;19960;-59
2022/06/04 05:21:59;;;;;;;;;;;;;;;21.99;100.00;97951.81;5069985;28;20591;-59
2022/06/04 05:24:27;;;;;;;;;;;;;;;21.96;100.00;97955.22;5069978;28;19928;-59
2022/06/04 05:26:54;;;;;;;;;;;;;;;21.85;100.00;97959.47;5069986;28;20019;-59
2022/06/04 05:29:21;;;;;;;;;;;;;;;22.14;100.00;97969.41;5069807;28;19929;-59
2022/06/04 05:31:48;;;;;;;;;;;;;;;22.41;100.00;97966.84;5069901;28;19999;-59
2022/06/04 05:34:15;;;;;;;;;;;;;;;22.53;100.00;97963.34;5069731;28;19932;-59
2022/06/04 05:36:42;;;;;;;;;;;;;;;22.03;100.00;97977.22;5069641;28;19992;-59
2022/06/04 05:39:09;;;;;;;;;;;;;;;21.51;100.00;97972.22;5069438;28;19932;-58
2022/06/04 05:41:37;;;;;;;;;;;;;;;21.25;100.00;97982.50;5069524;28;19951;-58
2022/06/04 05:44:04;;;;;;;;;;;;;;;21.74;100.00;97974.59;5069409;28;19932;-58
2022/06/04 05:46:30;;;;;;;;;;;;;;;21.44;100.00;97984.75;5077931;28;19924;-59
2022/06/04 05:48:59;;;;;;;;;;;;;;;21.41;100.00;97988.94;5080715;28;19924;-59
2022/06/04 05:51:26;;;;;;;;;;;;;;;21.65;100.00;97984.75;5081371;28;19925;-58
2022/06/04 05:53:53;;;;;;;;;;;;;;;21.39;100.00;97999.31;5078687;28;20536;-59
2022/06/04 05:56:21;;;;;;;;;;;;;;;21.60;100.00;97999.31;5078327;28;19925;-59
2022/06/04 05:58:51;;;;;;;;;;;;;;;21.58;100.00;97998.84;5080257;28;19925;-58
2022/06/04 06:01:18;;;;;;;;;;;;;;;21.94;100.00;97996.31;5081313;28;19928;-58
2022/06/04 06:03:45;;;;;;;;;;;;;;;22.10;100.00;97996.50;5079853;28;19947;-59
2022/06/04 06:06:12;;;;;;;;;;;;;;;22.17;100.00;97990.50;5077651;28;20619;-59
2022/06/04 06:08:38;;;;;;;;;;;;;;;21.92;100.00;97989.63;5078384;28;19957;-59
2022/06/04 06:11:06;;;;;;;;;;;;;;;21.50;100.00;97997.03;5081154;28;20008;-59
2022/06/04 06:13:33;;;;;;;;;;;;;;;21.58;100.00;97992.63;5073134;28;19947;-59
2022/06/04 06:16:04;;;;;;;;;;;;;;;21.62;100.00;97993.56;5069650;28;19932;-60
2022/06/04 06:18:31;;;;;;;;;;;;;;;21.30;100.00;97992.34;5070066;28;19932;-60
2022/06/04 06:20:57;;;;;;;;;;;;;;;20.98;100.00;97997.31;5069772;28;19925;-60
2022/06/04 06:23:24;;;;;;;;;;;;;;;21.08;100.00;97990.72;5070166;28;19925;-60
2022/06/04 06:25:50;;;;;;;;;;;;;;;21.08;100.00;97998.84;5069777;28;20421;-60
2022/06/04 06:28:19;;;;;;;;;;;;;;;21.26;100.00;97991.44;5072327;28;19935;-59
2022/06/04 06:30:45;;;;;;;;;;;;;;;21.41;100.00;97996.28;5073498;28;19947;-59
2022/06/04 06:33:13;;;;;;;;;;;;;;;21.53;100.00;97991.72;5073503;28;19983;-61
2022/06/04 06:35:39;;;;;;;;;;;;;;;21.73;100.00;97995.53;5056671;28;20001;-59
2022/06/04 06:38:06;;;;;;;;;;;;;;;22.26;100.00;97997.44;5084851;28;19924;-59
2022/06/04 06:40:32;;;;;;;;;;;;;;;22.28;100.00;98000.63;5084689;28;19928;-59
2022/06/04 06:42:59;;;;;;;;;;;;;;;22.37;100.00;98008.72;5072763;28;20624;-59
2022/06/04 06:45:26;;;;;;;;;;;;;;;22.65;100.00;97997.97;5080097;28;19928;-59
2022/06/04 06:47:52;;;;;;;;;;;;;;;22.63;100.00;97994.78;5081755;28;19933;-58
2022/06/04 06:50:20;;;;;;;;;;;;;;;22.54;100.00;98005.78;5080739;28;19924;-58
2022/06/04 06:52:47;;;;;;;;;;;;;;;22.53;100.00;98010.41;5082656;28;19960;-59
2022/06/04 06:55:14;;;;;;;;;;;;;;;22.14;100.00;98011.03;5084413;28;19992;-58
2022/06/04 06:57:40;;;;;;;;;;;;;;;21.99;100.00;98017.09;5083479;28;19951;-58
2022/06/04 07:00:07;;;;;;;;;;;;;;;22.30;100.00;98006.53;5080724;28;20537;-58
2022/06/04 07:02:33;;;;;;;;;;;;;;;22.36;100.00;97997.03;5080854;28;19935;-59
2022/06/04 07:05:00;;;;;;;;;;;;;;;22.23;100.00;98002.75;5084311;28;19927;-59
2022/06/04 07:07:27;;;;;;;;;;;;;;;22.35;100.00;98010.94;5084286;28;19947;-59
2022/06/04 07:09:54;;;;;;;;;;;;;;;23.25;100.00;98010.78;5081515;28;19928;-59
2022/06/04 07:12:21;;;;;;;;;;;;;;;23.73;100.00;97993.56;5080894;28;19968;-59
2022/06/04 07:14:47;;;;;;;;;;;;;;;23.93;100.00;97996.09;5074299;28;19925;-58
2022/06/04 07:17:14;;;;;;;;;;;;;;;24.19;100.00;97995.66;5083875;28;19956;-59
2022/06/04 07:19:40;;;;;;;;;;;;;;;24.46;100.00;97999.47;5082913;28;19936;-59
2022/06/04 07:22:07;;;;;;;;;;;;;;;24.57;100.00;98000.53;5080502;28;20039;-59
2022/06/04 07:24:35;;;;;;;;;;;;;;;24.88;100.00;98000.53;5080549;28;19931;-59
2022/06/04 07:27:02;;;;;;;;;;;;;;;25.12;100.00;98011.28;5072042;28;19925;-59
2022/06/04 07:29:28;;;;;;;;;;;;;;;24.81;100.00;98005.03;5072171;28;19936;-59
2022/06/04 07:31:55;;;;;;;;;;;;;;;24.73;100.00;98003.28;5071834;28;19951;-59
2022/06/04 07:34:24;;;;;;;;;;;;;;;24.30;100.00;98002.19;5071935;28;19978;-59
2022/06/04 07:36:51;;;;;;;;;;;;;;;23.61;100.00;98014.25;5072063;28;19925;-59
2022/06/04 07:39:18;;;;;;;;;;;;;;;23.37;100.00;98019.75;5071797;28;19925;-60
2022/06/04 07:41:51;;;;;;;;;;;;;;;23.15;100.00;98022.94;5072075;28;19928;-59
2022/06/04 07:44:18;;;;;;;;;;;;;;;23.32;100.00;98011.81;5078185;28;19920;-60
2022/06/04 07:46:45;;;;;;;;;;;;;;;23.60;100.00;98009.97;5082335;28;19928;-60
2022/06/04 07:49:13;;;;;;;;;;;;;;;23.82;100.00;98003.19;5080039;28;19964;-58
2022/06/04 07:51:40;;;;;;;;;;;;;;;24.23;100.00;98004.75;5063044;28;19924;-59
2022/06/04 07:54:08;;;;;;;;;;;;;;;23.84;100.00;98016.47;5083318;28;19925;-58
2022/06/04 07:56:35;;;;;;;;;;;;;;;24.08;100.00;98010.91;5083410;28;19979;-60
2022/06/04 07:59:03;;;;;;;;;;;;;;;24.43;100.00;98027.47;5080073;28;19979;-60
2022/06/04 08:01:30;;;;;;;;;;;;;;;25.14;100.00;98027.31;5079938;28;19991;-58
2022/06/04 08:03:57;;;;;;;;;;;;;;;25.54;100.00;98027.88;5083076;28;19920;-60
2022/06/04 08:06:23;;;;;;;;;;;;;;;25.68;100.00;98038.34;5083201;28;19974;-60
2022/06/04 08:08:51;;;;;;;;;;;;;;;25.69;100.00;98027.03;5080648;28;19971;-60
2022/06/04 08:11:34;;;;;;;;;;;;;;;25.66;100.00;98022.25;5079366;28;19962;-60
2022/06/04 08:14:04;;;;;;;;;;;;;;;25.42;100.00;98021.69;5070967;28;19964;-59
2022/06/04 08:16:30;;;;;;;;;;;;;;;25.05;100.00;98018.50;5079415;28;19928;-58
2022/06/04 08:18:57;;;;;;;;;;;;;;;24.82;100.00;98021.09;5082589;28;19936;-59
2022/06/04 08:21:23;;;;;;;;;;;;;;;25.14;100.00;98019.13;5083210;28;19924;-60
2022/06/04 08:23:49;;;;;;;;;;;;;;;25.50;100.00;98016.06;5080846;28;19932;-60
2022/06/04 08:26:16;;;;;;;;;;;;;;;25.72;100.00;98020.84;5079531;28;19992;-59
2022/06/04 08:28:42;;;;;;;;;;;;;;;25.93;100.00;98019.69;5080726;28;19992;-60
2022/06/04 08:31:12;;;;;;;;;;;;;;;25.97;100.00;98021.34;5082866;28;19932;-60
2022/06/04 08:33:39;;;;;;;;;;;;;;;26.11;100.00;98029.03;5081930;28;20340;-60
2022/06/04 08:36:07;;;;;;;;;;;;;;;26.23;100.00;98026.19;5079213;28;20011;-60
2022/06/04 08:38:33;;;;;;;;;;;;;;;26.12;100.00;98041.59;5079467;28;19925;-59
2022/06/04 08:41:01;;;;;;;;;;;;;;;26.21;100.00;98055.88;5070838;28;19931;-60
2022/06/04 08:43:34;;;;;;;;;;;;;;;26.12;100.00;98049.81;5053509;28;19992;-60
2022/06/04 08:46:02;;;;;;;;;;;;;;;26.05;100.00;98041.44;5061858;28;19931;-60
2022/06/04 08:48:31;;;;;;;;;;;;;;;26.03;100.00;98054.66;5079160;28;20039;-58
2022/06/04 08:50:57;;;;;;;;;;;;;;;26.01;100.00;98048.78;5081536;28;19930;-60
2022/06/04 08:53:27;;;;;;;;;;;;;;;26.14;100.00;98055.69;5082289;28;19925;-59
2022/06/04 08:58:47;;;;;;;;;;;;;;;26.22;100.00;98044.53;5079494;28;19932;-60
2022/06/04 09:01:15;;;;;;;;;;;;;;;26.47;100.00;98050.50;5082164;28;19970;-59
2022/06/04 09:03:50;;;;;;;;;;;;;;;26.60;100.00;98049.16;5081181;28;19988;-60
2022/06/04 09:06:22;;;;;;;;;;;;;;;26.57;100.00;98038.13;5078302;28;19935;-60
2022/06/04 09:08:51;;;;;;;;;;;;;;;26.49;100.00;98034.47;5061805;28;19947;-58
2022/06/04 09:11:19;;;;;;;;;;;;;;;26.27;100.00;98029.78;5080890;28;19935;-58
2022/06/04 09:13:48;;;;;;;;;;;;;;;26.38;100.00;98035.44;5071096;28;19995;-59
2022/06/04 09:16:20;;;;;;;;;;;;;;;26.38;100.00;98028.03;5077644;28;20484;-59
2022/06/04 09:18:49;;;;;;;;;;;;;;;26.46;100.00;98035.19;5079370;28;19932;-59
2022/06/04 09:21:16;;;;;;;;;;;;;;;26.28;100.00;98028.59;5062974;28;19925;-59
2022/06/04 09:23:44;;;;;;;;;;;;;;;26.60;100.00;98029.19;5079714;28;19931;-59
2022/06/04 09:26:21;;;;;;;;;;;;;;;26.70;100.00;98034.88;5078028;28;20445;-60
2022/06/04 09:28:56;;;;;;;;;;;;;;;26.75;100.00;98033.75;5079800;28;19925;-58
2022/06/04 09:31:33;;;;;;;;;;;;;;;26.67;100.00;98018.38;5081141;28;20015;-59
2022/06/04 09:34:04;;;;;;;;;;;;;;;26.76;100.00;98019.72;5070057;28;19959;-59
2022/06/04 09:36:34;;;;;;;;;;;;;;;26.74;100.00;98023.94;5070064;28;19921;-59
2022/06/04 09:39:01;;;;;;;;;;;;;;;26.73;100.00;98027.88;5070156;28;19951;-59
2022/06/04 09:41:29;;;;;;;;;;;;;;;26.45;100.00;98016.41;5078475;28;19925;-59
2022/06/04 09:44:04;;;;;;;;;;;;;;;26.68;100.00;98015.25;5071551;28;19931;-59
2022/06/04 09:46:30;;;;;;;;;;;;;;;26.22;100.00;98022.66;5078313;28;19980;-59
2022/06/04 09:48:58;;;;;;;;;;;;;;;25.70;100.00;98022.34;5081359;28;19932;-59
2022/06/04 09:51:27;;;;;;;;;;;;;;;25.00;100.00;98018.78;5081723;28;19996;-59
2022/06/04 09:53:55;;;;;;;;;;;;;;;25.48;100.00;98017.53;5078680;28;19924;-59
2022/06/04 09:56:30;;;;;;;;;;;;;;;25.59;100.00;98013.91;5078193;28;19929;-59
2022/06/04 09:59:06;;;;;;;;;;;;;;;26.07;100.00;98015.28;5081275;28;20670;-59
2022/06/04 10:01:36;;;;;;;;;;;;;;;26.36;100.00;98019.38;5081338;28;20404;-59
2022/06/04 10:04:04;;;;;;;;;;;;;;;26.52;100.00;98017.31;5081839;28;19932;-59
2022/06/04 10:06:32;;;;;;;;;;;;;;;26.65;100.00;98007.75;5082198;28;19925;-59
2022/06/04 10:11:50;;;;;;;;;;;;;;;26.76;100.00;98010.69;5084352;28;20487;-60
2022/06/04 10:14:19;;;;;;;;;;;;;;;26.40;100.00;98009.28;5082345;28;19932;-60
2022/06/04 10:16:45;;;;;;;;;;;;;;;26.30;100.00;97998.94;5083833;28;19925;-60
2022/06/04 10:19:16;;;;;;;;;;;;;;;26.59;100.00;97995.53;5085557;28;19932;-60
2022/06/04 10:21:45;;;;;;;;;;;;;;;26.73;100.00;97995.00;5084246;28;19936;-60
2022/06/04 10:24:22;;;;;;;;;;;;;;;26.77;100.00;97985.66;5082074;28;19959;-59
2022/06/04 10:26:58;;;;;;;;;;;;;;;26.58;100.00;97985.75;5083947;28;19951;-60
2022/06/04 10:29:37;;;;;;;;;;;;;;;26.57;100.00;97986.91;5085495;28;20438;-60
2022/06/04 10:32:08;;;;;;;;;;;;;;;26.27;100.00;97985.97;5081833;28;19925;-60
2022/06/04 10:34:38;;;;;;;;;;;;;;;26.18;100.00;97985.41;5082055;28;19924;-59
2022/06/04 10:37:13;;;;;;;;;;;;;;;26.39;100.00;97983.06;5085144;28;19932;-60
2022/06/04 10:39:44;;;;;;;;;;;;;;;26.17;100.00;97976.41;5084221;28;19924;-60
2022/06/04 10:42:18;;;;;;;;;;;;;;;26.23;100.00;97976.91;5063970;28;19928;-60
2022/06/04 10:44:52;;;;;;;;;;;;;;;26.02;100.00;97971.00;5074712;28;19935;-59
2022/06/04 10:47:26;;;;;;;;;;;;;;;26.16;100.00;97976.75;5085075;28;19952;-58
2022/06/04 10:50:17;;;;;;;;;;;;;;;26.12;100.00;97973.94;5082280;28;19925;-61
2022/06/04 10:52:46;;;;;;;;;;;;;;;25.76;100.00;97983.41;5082917;28;19960;-60
2022/06/04 10:55:16;;;;;;;;;;;;;;;25.40;100.00;97978.31;5084940;28;19924;-60
2022/06/04 10:57:47;;;;;;;;;;;;;;;25.64;100.00;97978.09;5083537;28;20026;-59
2022/06/04 11:00:16;;;;;;;;;;;;;;;25.42;100.00;97976.00;5080805;28;19993;-59
2022/06/04 11:02:46;;;;;;;;;;;;;;;25.62;100.00;97980.41;5082057;28;19924;-59
2022/06/04 11:05:15;;;;;;;;;;;;;;;25.68;100.00;97973.47;5084251;28;19931;-59
2022/06/04 11:07:52;;;;;;;;;;;;;;;25.82;100.00;97977.63;5083392;28;19929;-59
2022/06/04 11:10:22;;;;;;;;;;;;;;;25.63;100.00;97978.44;5080267;28;19932;-61
2022/06/04 11:12:52;;;;;;;;;;;;;;;25.44;100.00;97968.22;5095644;28;20019;-60
2022/06/04 11:15:22;;;;;;;;;;;;;;;25.44;100.00;97976.44;5084520;28;19980;-59
2022/06/04 11:17:51;;;;;;;;;;;;;;;25.63;100.00;97971.00;5082369;28;19924;-61
2022/06/04 11:20:20;;;;;;;;;;;;;;;25.47;100.00;97972.22;5080893;28;19928;-59
2022/06/04 11:22:51;;;;;;;;;;;;;;;25.10;100.00;97974.50;5082707;28;19920;-60
2022/06/04 11:25:24;;;;;;;;;;;;;;;25.19;100.00;97980.59;5084567;28;19924;-60
2022/06/04 11:27:53;;;;;;;;;;;;;;;25.23;100.00;97975.97;5082075;28;19968;-60
2022/06/04 11:30:26;;;;;;;;;;;;;;;25.60;100.00;97971.72;5080719;28;19925;-59
2022/06/04 11:32:56;;;;;;;;;;;;;;;25.82;100.00;97972.16;5089585;28;19935;-60
2022/06/04 11:35:34;;;;;;;;;;;;;;;26.12;100.00;97975.91;5080831;28;19953;-60
2022/06/04 11:38:30;;;;;;;;;;;;;;;26.28;100.00;97977.38;5080599;28;19971;-60
2022/06/04 11:41:03;;;;;;;;;;;;;;;25.98;100.00;97976.41;5065892;28;19959;-60
2022/06/04 11:43:35;;;;;;;;;;;;;;;25.73;100.00;97975.13;5076262;28;19925;-60
2022/06/04 11:46:08;;;;;;;;;;;;;;;26.02;100.00;97976.47;5080510;28;19921;-60
2022/06/04 11:48:46;;;;;;;;;;;;;;;26.17;100.00;97964.66;5080375;28;19978;-60
2022/06/04 11:51:20;;;;;;;;;;;;;;;26.18;100.00;97964.28;5083694;28;19928;-60
2022/06/04 11:53:49;;;;;;;;;;;;;;;26.39;100.00;97968.56;5082022;28;19964;-60
2022/06/04 11:56:21;;;;;;;;;;;;;;;26.59;100.00;97973.63;5079980;28;19955;-60
2022/06/04 11:59:03;;;;;;;;;;;;;;;26.07;100.00;97974.22;5081327;28;19925;-60
2022/06/04 12:01:31;;;;;;;;;;;;;;;26.34;100.00;97972.38;5083407;28;19924;-60
2022/06/04 12:04:02;;;;;;;;;;;;;;;26.35;100.00;97973.97;5080170;28;19951;-60
2022/06/04 12:06:34;;;;;;;;;;;;;;;26.58;100.00;97972.06;5080279;28;20176;-60
2022/06/04 12:09:06;;;;;;;;;;;;;;;26.50;100.00;97975.81;5079858;28;19932;-60
2022/06/04 12:11:39;;;;;;;;;;;;;;;26.25;100.00;97980.06;5080136;28;19959;-60
2022/06/04 12:14:12;;;;;;;;;;;;;;;26.37;100.00;97976.38;5093253;28;19929;-60
2022/06/04 12:16:39;;;;;;;;;;;;;;;26.34;100.00;97961.44;5080064;28;19925;-60
2022/06/04 12:24:15;;;;;;;;;;;;;;;26.14;100.00;97962.63;5083057;28;19928;-60
2022/06/04 12:24:59;;;;;;;;;;;;;;;26.86;97.30;97962.72;5081858;28;19956;-60
2022/06/04 12:27:27;;;;;;;;;;;;;;;26.56;99.63;97963.38;5082744;28;19925;-62
2022/06/04 12:29:55;;;;;;;;;;;;;;;26.75;98.71;97957.84;5080122;28;19924;-60
2022/06/04 12:32:29;;;;;;;;;;;;;;;26.86;97.51;97960.78;5079322;28;19943;-60
2022/06/04 12:35:05;;;;;;;;;;;;;;;26.91;97.04;97956.94;5082427;28;19928;-60
2022/06/04 12:37:33;;;;;;;;;;;;;;;26.95;96.24;97958.56;5082866;28;19924;-61
2022/06/04 12:40:01;;;;;;;;;;;;;;;27.09;95.36;97956.03;5070910;28;19924;-60
2022/06/04 12:42:29;;;;;;;;;;;;;;;27.08;95.56;97956.41;5070739;28;19925;-60
2022/06/04 12:44:56;;;;;;;;;;;;;;;27.30;94.14;97956.31;5073852;28;19935;-59
2022/06/04 12:47:25;;;;;;;;;;;;;;;27.20;93.97;97959.69;5064780;28;19932;-60
2022/06/04 12:49:54;;;;;;;;;;;;;;;27.17;95.13;97954.19;5079848;28;19931;-60
2022/06/04 12:52:31;;;;;;;;;;;;;;;26.98;95.84;97959.78;5078996;28;19947;-60
2022/06/04 12:54:59;;;;;;;;;;;;;;;26.72;97.51;97952.31;5082214;28;19924;-60
2022/06/04 12:57:40;;;;;;;;;;;;;;;26.54;98.63;97954.75;5082331;28;19924;-59
2022/06/04 13:00:19;;;;;;;;;;;;;;;26.65;99.02;97943.97;5078831;28;19985;-59
2022/06/04 13:02:56;;;;;;;;;;;;;;;26.50;99.05;97953.09;5080313;28;19931;-60
2022/06/04 13:05:26;;;;;;;;;;;;;;;26.43;100.00;97948.28;5082213;28;19928;-60
2022/06/04 13:07:59;;;;;;;;;;;;;;;26.45;100.00;97934.25;5079715;28;19931;-60